Terminal Aerodrome Forecast
Issued by NWS

Home | Current Version | Previous Version | Text Only | Print | Product List | Glossary On
Versions: 1 2 3 4 5 6 7 8 9 10 11 12 13 14
000
FTUS43 KSGF 280500
TAFJLN
TAF
KJLN 280520Z 2806/2906 13003KT P6SM SCT060
     FM281500 14006KT P6SM SCT040
     FM282300 14003KT P6SM SKC=

USA.gov is the U.S. government's official web portal to all federal, state and local government web resources and services.